sensor_id;sensor_type;location;lat;lon;timestamp;pressure;altitude;pressure_sealevel;temperature;humidity
11672;BME280;5892;43.412;24.612;2023-04-22T00:02:02;99693.47;;;12.89;100.00
11672;BME280;5892;43.412;24.612;2023-04-22T00:04:31;99641.78;;;12.38;100.00
11672;BME280;5892;43.412;24.612;2023-04-22T00:06:58;99693.94;;;12.91;100.00
11672;BME280;5892;43.412;24.612;2023-04-22T00:09:25;99661.81;;;12.71;100.00
11672;BME280;5892;43.412;24.612;2023-04-22T00:11:52;99650.19;;;12.53;100.00
11672;BME280;5892;43.412;24.612;2023-04-22T00:14:19;99701.47;;;12.82;100.00
11672;BME280;5892;43.412;24.612;2023-04-22T00:16:46;99704.84;;;12.67;100.00
11672;BME280;5892;43.412;24.612;2023-04-22T00:19:14;99651.25;;;12.28;100.00
11672;BME280;5892;43.412;24.612;2023-04-22T00:21:41;99689.47;;;12.54;100.00
11672;BME280;5892;43.412;24.612;2023-04-22T00:24:08;99692.09;;;12.50;100.00
11672;BME280;5892;43.412;24.612;2023-04-22T00:26:35;99683.13;;;12.41;100.00
11672;BME280;5892;43.412;24.612;2023-04-22T00:29:03;99699.97;;;12.40;100.00
11672;BME280;5892;43.412;24.612;2023-04-22T00:31:30;99587.13;;;11.50;100.00
11672;BME280;5892;43.412;24.612;2023-04-22T00:33:56;99722.16;;;12.14;100.00
11672;BME280;5892;43.412;24.612;2023-04-22T00:36:25;99704.88;;;12.13;100.00
11672;BME280;5892;43.412;24.612;2023-04-22T00:38:52;99710.59;;;12.20;100.00
11672;BME280;5892;43.412;24.612;2023-04-22T00:41:19;99687.59;;;11.92;100.00
11672;BME280;5892;43.412;24.612;2023-04-22T00:43:46;99685.56;;;11.80;100.00
11672;BME280;5892;43.412;24.612;2023-04-22T00:46:15;99711.53;;;11.83;100.00
11672;BME280;5892;43.412;24.612;2023-04-22T00:48:42;99722.72;;;11.99;100.00
11672;BME280;5892;43.412;24.612;2023-04-22T00:51:09;99689.56;;;11.83;100.00
11672;BME280;5892;43.412;24.612;2023-04-22T00:53:38;99705.19;;;11.91;100.00
11672;BME280;5892;43.412;24.612;2023-04-22T00:56:06;99690.94;;;11.77;100.00
11672;BME280;5892;43.412;24.612;2023-04-22T00:58:33;99695.59;;;11.76;100.00
11672;BME280;5892;43.412;24.612;2023-04-22T01:01:01;99715.56;;;11.85;100.00
11672;BME280;5892;43.412;24.612;2023-04-22T01:03:28;99695.97;;;11.66;100.00
11672;BME280;5892;43.412;24.612;2023-04-22T01:05:57;99714.94;;;11.80;100.00
11672;BME280;5892;43.412;24.612;2023-04-22T01:08:27;99669.13;;;11.42;100.00
11672;BME280;5892;43.412;24.612;2023-04-22T01:10:56;99626.31;;;11.29;100.00
11672;BME280;5892;43.412;24.612;2023-04-22T01:13:23;99706.34;;;11.61;100.00
11672;BME280;5892;43.412;24.612;2023-04-22T01:15:52;99673.00;;;11.41;100.00
11672;BME280;5892;43.412;24.612;2023-04-22T01:18:19;99580.25;;;10.85;100.00
11672;BME280;5892;43.412;24.612;2023-04-22T01:20:46;99714.66;;;11.73;100.00
11672;BME280;5892;43.412;24.612;2023-04-22T01:23:18;99704.16;;;11.75;100.00
11672;BME280;5892;43.412;24.612;2023-04-22T01:25:45;99713.03;;;11.72;100.00
11672;BME280;5892;43.412;24.612;2023-04-22T01:28:13;99716.63;;;11.64;100.00
11672;BME280;5892;43.412;24.612;2023-04-22T01:30:41;99685.69;;;11.55;100.00
11672;BME280;5892;43.412;24.612;2023-04-22T01:33:08;99709.88;;;11.61;100.00
11672;BME280;5892;43.412;24.612;2023-04-22T01:35:36;99683.53;;;11.39;100.00
11672;BME280;5892;43.412;24.612;2023-04-22T01:38:04;99722.94;;;11.64;100.00
11672;BME280;5892;43.412;24.612;2023-04-22T01:40:33;99724.06;;;11.63;100.00
11672;BME280;5892;43.412;24.612;2023-04-22T01:43:01;99688.03;;;11.44;100.00
11672;BME280;5892;43.412;24.612;2023-04-22T01:45:28;99626.09;;;11.05;100.00
11672;BME280;5892;43.412;24.612;2023-04-22T01:47:55;99730.59;;;11.50;100.00
11672;BME280;5892;43.412;24.612;2023-04-22T01:50:26;99655.25;;;11.18;100.00
11672;BME280;5892;43.412;24.612;2023-04-22T01:52:52;99705.97;;;11.33;100.00
11672;BME280;5892;43.412;24.612;2023-04-22T01:55:19;99725.69;;;11.26;100.00
11672;BME280;5892;43.412;24.612;2023-04-22T01:57:48;99706.78;;;11.33;100.00
11672;BME280;5892;43.412;24.612;2023-04-22T02:00:15;99604.34;;;10.71;100.00
11672;BME280;5892;43.412;24.612;2023-04-22T02:02:43;99646.31;;;10.92;100.00
11672;BME280;5892;43.412;24.612;2023-04-22T02:05:09;99623.47;;;10.79;100.00
11672;BME280;5892;43.412;24.612;2023-04-22T02:07:36;99548.06;;;10.35;100.00
11672;BME280;5892;43.412;24.612;2023-04-22T02:10:04;99700.78;;;11.40;100.00
11672;BME280;5892;43.412;24.612;2023-04-22T02:12:32;99590.91;;;10.31;100.00
11672;BME280;5892;43.412;24.612;2023-04-22T02:15:00;99622.84;;;10.82;100.00
11672;BME280;5892;43.412;24.612;2023-04-22T02:17:27;99667.31;;;10.88;100.00
11672;BME280;5892;43.412;24.612;2023-04-22T02:19:54;99720.91;;;11.15;100.00
11672;BME280;5892;43.412;24.612;2023-04-22T02:22:22;99630.63;;;10.63;100.00
11672;BME280;5892;43.412;24.612;2023-04-22T02:24:49;99565.31;;;10.27;100.00
11672;BME280;5892;43.412;24.612;2023-04-22T02:27:16;99723.66;;;11.15;100.00
11672;BME280;5892;43.412;24.612;2023-04-22T02:29:43;99701.38;;;11.16;100.00
11672;BME280;5892;43.412;24.612;2023-04-22T02:32:11;99705.06;;;11.20;100.00
11672;BME280;5892;43.412;24.612;2023-04-22T02:34:38;99716.25;;;11.07;100.00
11672;BME280;5892;43.412;24.612;2023-04-22T02:37:05;99675.91;;;10.69;100.00
11672;BME280;5892;43.412;24.612;2023-04-22T02:39:32;99714.63;;;11.05;100.00
11672;BME280;5892;43.412;24.612;2023-04-22T02:41:59;99712.19;;;11.13;100.00
11672;BME280;5892;43.412;24.612;2023-04-22T02:44:26;99702.84;;;11.14;100.00
11672;BME280;5892;43.412;24.612;2023-04-22T02:46:53;99701.38;;;11.16;100.00
11672;BME280;5892;43.412;24.612;2023-04-22T02:49:22;99657.75;;;10.94;100.00
11672;BME280;5892;43.412;24.612;2023-04-22T02:51:48;99701.00;;;11.26;100.00
11672;BME280;5892;43.412;24.612;2023-04-22T02:54:15;99702.63;;;11.27;100.00
11672;BME280;5892;43.412;24.612;2023-04-22T02:56:42;99696.66;;;11.25;100.00
11672;BME280;5892;43.412;24.612;2023-04-22T02:59:09;99708.06;;;11.36;100.00
11672;BME280;5892;43.412;24.612;2023-04-22T03:01:36;99659.66;;;11.02;100.00
11672;BME280;5892;43.412;24.612;2023-04-22T03:04:03;99653.50;;;11.05;100.00
11672;BME280;5892;43.412;24.612;2023-04-22T03:06:31;99713.88;;;11.34;100.00
11672;BME280;5892;43.412;24.612;2023-04-22T03:08:59;99707.72;;;11.37;100.00
11672;BME280;5892;43.412;24.612;2023-04-22T03:11:26;99717.56;;;11.38;100.00
11672;BME280;5892;43.412;24.612;2023-04-22T03:13:53;99718.84;;;11.41;100.00
11672;BME280;5892;43.412;24.612;2023-04-22T03:16:22;99719.00;;;11.44;100.00
11672;BME280;5892;43.412;24.612;2023-04-22T03:18:50;99717.75;;;11.33;100.00
11672;BME280;5892;43.412;24.612;2023-04-22T03:21:17;99708.84;;;11.36;100.00
11672;BME280;5892;43.412;24.612;2023-04-22T03:23:45;99712.09;;;11.38;100.00
11672;BME280;5892;43.412;24.612;2023-04-22T03:26:12;99726.94;;;11.37;100.00
11672;BME280;5892;43.412;24.612;2023-04-22T03:28:39;99731.78;;;11.40;100.00
11672;BME280;5892;43.412;24.612;2023-04-22T03:31:06;99681.22;;;11.12;100.00
11672;BME280;5892;43.412;24.612;2023-04-22T03:33:33;99736.09;;;11.50;100.00
11672;BME280;5892;43.412;24.612;2023-04-22T03:36:00;99671.41;;;11.11;100.00
11672;BME280;5892;43.412;24.612;2023-04-22T03:38:26;99589.19;;;10.65;100.00
11672;BME280;5892;43.412;24.612;2023-04-22T03:40:56;99739.34;;;11.43;100.00
11672;BME280;5892;43.412;24.612;2023-04-22T03:43:23;99740.13;;;11.44;100.00
11672;BME280;5892;43.412;24.612;2023-04-22T03:45:50;99723.53;;;11.40;100.00
11672;BME280;5892;43.412;24.612;2023-04-22T03:48:17;99742.38;;;11.51;100.00
11672;BME280;5892;43.412;24.612;2023-04-22T03:50:44;99741.88;;;11.48;100.00
11672;BME280;5892;43.412;24.612;2023-04-22T03:53:11;99739.63;;;11.51;100.00
11672;BME280;5892;43.412;24.612;2023-04-22T03:55:39;99733.28;;;11.59;100.00
11672;BME280;5892;43.412;24.612;2023-04-22T03:58:07;99731.47;;;11.33;100.00
11672;BME280;5892;43.412;24.612;2023-04-22T04:00:35;99756.38;;;11.58;100.00
11672;BME280;5892;43.412;24.612;2023-04-22T04:03:02;99753.63;;;11.58;100.00
11672;BME280;5892;43.412;24.612;2023-04-22T04:05:29;99757.22;;;11.50;100.00
11672;BME280;5892;43.412;24.612;2023-04-22T04:07:56;99737.91;;;11.37;100.00
11672;BME280;5892;43.412;24.612;2023-04-22T04:10:23;99676.94;;;10.94;100.00
11672;BME280;5892;43.412;24.612;2023-04-22T04:12:50;99657.16;;;10.80;100.00
11672;BME280;5892;43.412;24.612;2023-04-22T04:15:18;99770.00;;;11.45;100.00
11672;BME280;5892;43.412;24.612;2023-04-22T04:17:46;99711.72;;;11.11;100.00
11672;BME280;5892;43.412;24.612;2023-04-22T04:20:13;99621.94;;;10.52;100.00
11672;BME280;5892;43.412;24.612;2023-04-22T04:22:40;99752.47;;;11.29;100.00
11672;BME280;5892;43.412;24.612;2023-04-22T04:25:07;99752.94;;;11.31;100.00
11672;BME280;5892;43.412;24.612;2023-04-22T04:27:34;99730.91;;;11.19;100.00
11672;BME280;5892;43.412;24.612;2023-04-22T04:30:04;99772.75;;;11.45;100.00
11672;BME280;5892;43.412;24.612;2023-04-22T04:32:33;99742.75;;;11.32;100.00
11672;BME280;5892;43.412;24.612;2023-04-22T04:35:00;99684.06;;;10.86;100.00
11672;BME280;5892;43.412;24.612;2023-04-22T04:37:27;99778.38;;;11.49;100.00
11672;BME280;5892;43.412;24.612;2023-04-22T04:39:54;99756.16;;;11.33;100.00
11672;BME280;5892;43.412;24.612;2023-04-22T04:42:23;99766.09;;;11.46;100.00
11672;BME280;5892;43.412;24.612;2023-04-22T04:44:50;99780.06;;;11.62;100.00
11672;BME280;5892;43.412;24.612;2023-04-22T04:47:17;99782.34;;;11.60;100.00
11672;BME280;5892;43.412;24.612;2023-04-22T04:49:46;99787.16;;;11.72;100.00
11672;BME280;5892;43.412;24.612;2023-04-22T04:52:14;99754.16;;;11.51;100.00
11672;BME280;5892;43.412;24.612;2023-04-22T04:54:41;99770.88;;;11.67;100.00
11672;BME280;5892;43.412;24.612;2023-04-22T04:57:08;99802.31;;;11.78;100.00
11672;BME280;5892;43.412;24.612;2023-04-22T04:59:35;99789.41;;;11.70;100.00
11672;BME280;5892;43.412;24.612;2023-04-22T05:02:02;99770.09;;;11.58;100.00
11672;BME280;5892;43.412;24.612;2023-04-22T05:04:29;99776.56;;;11.62;100.00
11672;BME280;5892;43.412;24.612;2023-04-22T05:06:58;99798.06;;;11.89;100.00
11672;BME280;5892;43.412;24.612;2023-04-22T05:09:24;99801.84;;;12.05;100.00
11672;BME280;5892;43.412;24.612;2023-04-22T05:11:51;99795.03;;;12.11;100.00
11672;BME280;5892;43.412;24.612;2023-04-22T05:14:18;99798.38;;;12.17;100.00
11672;BME280;5892;43.412;24.612;2023-04-22T05:16:45;99786.91;;;12.15;100.00
11672;BME280;5892;43.412;24.612;2023-04-22T05:19:12;99813.94;;;12.34;100.00
11672;BME280;5892;43.412;24.612;2023-04-22T05:21:39;99820.50;;;12.41;100.00
11672;BME280;5892;43.412;24.612;2023-04-22T05:24:07;99807.56;;;12.42;100.00
11672;BME280;5892;43.412;24.612;2023-04-22T05:26:34;99799.59;;;12.28;100.00
11672;BME280;5892;43.412;24.612;2023-04-22T05:29:01;99779.06;;;12.05;100.00
11672;BME280;5892;43.412;24.612;2023-04-22T05:31:28;99811.72;;;12.48;100.00
11672;BME280;5892;43.412;24.612;2023-04-22T05:33:55;99673.41;;;11.61;100.00
11672;BME280;5892;43.412;24.612;2023-04-22T05:36:22;99822.81;;;12.60;100.00
11672;BME280;5892;43.412;24.612;2023-04-22T05:38:52;99754.75;;;12.15;100.00
11672;BME280;5892;43.412;24.612;2023-04-22T05:41:20;99804.81;;;12.21;100.00
11672;BME280;5892;43.412;24.612;2023-04-22T05:43:47;99833.63;;;12.36;100.00
11672;BME280;5892;43.412;24.612;2023-04-22T05:46:14;99754.69;;;12.03;100.00
11672;BME280;5892;43.412;24.612;2023-04-22T05:48:41;99832.66;;;12.61;100.00
11672;BME280;5892;43.412;24.612;2023-04-22T05:51:09;99816.75;;;12.46;100.00
11672;BME280;5892;43.412;24.612;2023-04-22T05:53:36;99841.88;;;12.56;100.00
11672;BME280;5892;43.412;24.612;2023-04-22T05:56:04;99846.81;;;12.51;100.00
11672;BME280;5892;43.412;24.612;2023-04-22T05:58:33;99840.94;;;12.52;100.00
11672;BME280;5892;43.412;24.612;2023-04-22T06:01:00;99783.03;;;12.16;100.00
11672;BME280;5892;43.412;24.612;2023-04-22T06:03:27;99862.47;;;12.50;100.00
11672;BME280;5892;43.412;24.612;2023-04-22T06:05:54;99851.81;;;12.49;100.00
11672;BME280;5892;43.412;24.612;2023-04-22T06:08:21;99730.34;;;11.64;100.00
11672;BME280;5892;43.412;24.612;2023-04-22T06:10:48;99801.56;;;11.98;100.00
11672;BME280;5892;43.412;24.612;2023-04-22T06:13:15;99857.72;;;12.39;100.00
11672;BME280;5892;43.412;24.612;2023-04-22T06:15:44;99791.31;;;11.78;100.00
11672;BME280;5892;43.412;24.612;2023-04-22T06:18:11;99875.13;;;12.43;100.00
11672;BME280;5892;43.412;24.612;2023-04-22T06:20:38;99881.25;;;12.48;100.00
11672;BME280;5892;43.412;24.612;2023-04-22T06:23:05;99887.31;;;12.33;100.00
11672;BME280;5892;43.412;24.612;2023-04-22T06:25:33;99866.34;;;12.28;100.00
11672;BME280;5892;43.412;24.612;2023-04-22T06:28:00;99864.72;;;12.27;100.00
11672;BME280;5892;43.412;24.612;2023-04-22T06:30:27;99876.75;;;12.64;100.00
11672;BME280;5892;43.412;24.612;2023-04-22T06:32:56;99885.50;;;12.87;100.00
11672;BME280;5892;43.412;24.612;2023-04-22T06:35:22;99879.59;;;12.97;100.00
11672;BME280;5892;43.412;24.612;2023-04-22T06:37:50;99846.84;;;12.84;100.00
11672;BME280;5892;43.412;24.612;2023-04-22T06:40:17;99881.22;;;13.10;100.00
11672;BME280;5892;43.412;24.612;2023-04-22T06:42:45;99841.75;;;12.73;100.00
11672;BME280;5892;43.412;24.612;2023-04-22T06:45:12;99890.50;;;13.27;100.00
11672;BME280;5892;43.412;24.612;2023-04-22T06:47:39;99867.22;;;13.03;100.00
11672;BME280;5892;43.412;24.612;2023-04-22T06:50:09;99859.84;;;12.95;100.00
11672;BME280;5892;43.412;24.612;2023-04-22T06:52:37;99890.50;;;13.27;100.00
11672;BME280;5892;43.412;24.612;2023-04-22T06:55:07;99818.34;;;12.88;100.00
11672;BME280;5892;43.412;24.612;2023-04-22T06:57:34;99905.13;;;13.39;100.00
11672;BME280;5892;43.412;24.612;2023-04-22T07:00:01;99900.41;;;13.40;100.00
11672;BME280;5892;43.412;24.612;2023-04-22T07:02:41;99761.53;;;12.59;100.00
11672;BME280;5892;43.412;24.612;2023-04-22T07:05:16;99913.25;;;13.81;100.00
11672;BME280;5892;43.412;24.612;2023-04-22T07:07:43;99892.69;;;13.78;100.00
11672;BME280;5892;43.412;24.612;2023-04-22T07:10:11;99899.25;;;13.98;100.00
11672;BME280;5892;43.412;24.612;2023-04-22T07:12:38;99926.50;;;14.12;100.00
11672;BME280;5892;43.412;24.612;2023-04-22T07:15:09;99935.22;;;14.02;100.00
11672;BME280;5892;43.412;24.612;2023-04-22T07:17:36;99937.28;;;14.05;100.00
11672;BME280;5892;43.412;24.612;2023-04-22T07:20:03;99943.63;;;14.17;100.00
11672;BME280;5892;43.412;24.612;2023-04-22T07:22:32;99937.78;;;14.43;100.00
11672;BME280;5892;43.412;24.612;2023-04-22T07:25:00;99869.44;;;14.00;100.00
11672;BME280;5892;43.412;24.612;2023-04-22T07:27:27;99883.78;;;14.18;100.00
11672;BME280;5892;43.412;24.612;2023-04-22T07:29:54;99881.94;;;14.22;100.00
11672;BME280;5892;43.412;24.612;2023-04-22T07:32:21;99941.31;;;14.80;100.00
11672;BME280;5892;43.412;24.612;2023-04-22T07:34:48;99935.91;;;14.83;100.00
11672;BME280;5892;43.412;24.612;2023-04-22T07:37:15;99943.44;;;15.11;100.00
11672;BME280;5892;43.412;24.612;2023-04-22T07:39:44;99932.72;;;15.09;100.00
11672;BME280;5892;43.412;24.612;2023-04-22T07:42:14;99961.47;;;15.08;100.00
11672;BME280;5892;43.412;24.612;2023-04-22T07:44:41;99952.81;;;15.22;100.00
11672;BME280;5892;43.412;24.612;2023-04-22T07:47:07;99894.94;;;14.58;100.00
11672;BME280;5892;43.412;24.612;2023-04-22T07:49:35;99899.16;;;14.55;100.00
11672;BME280;5892;43.412;24.612;2023-04-22T07:52:02;99954.78;;;14.69;100.00
11672;BME280;5892;43.412;24.612;2023-04-22T07:54:29;99959.09;;;14.95;100.00
11672;BME280;5892;43.412;24.612;2023-04-22T07:56:57;99949.03;;;14.74;100.00
11672;BME280;5892;43.412;24.612;2023-04-22T07:59:26;99911.56;;;14.61;100.00
11672;BME280;5892;43.412;24.612;2023-04-22T08:01:52;99963.34;;;15.04;100.00
11672;BME280;5892;43.412;24.612;2023-04-22T08:04:24;99968.94;;;15.20;100.00
11672;BME280;5892;43.412;24.612;2023-04-22T08:06:51;99907.59;;;14.87;100.00
11672;BME280;5892;43.412;24.612;2023-04-22T08:09:19;99863.63;;;14.78;99.61
11672;BME280;5892;43.412;24.612;2023-04-22T08:11:46;99870.59;;;14.88;99.27
11672;BME280;5892;43.412;24.612;2023-04-22T08:14:17;99921.81;;;15.41;97.90
11672;BME280;5892;43.412;24.612;2023-04-22T08:16:44;99965.56;;;15.66;96.65
11672;BME280;5892;43.412;24.612;2023-04-22T08:19:11;99965.19;;;15.96;95.82
11672;BME280;5892;43.412;24.612;2023-04-22T08:21:39;99963.03;;;16.05;95.58
11672;BME280;5892;43.412;24.612;2023-04-22T08:24:06;99964.13;;;16.16;94.26
11672;BME280;5892;43.412;24.612;2023-04-22T08:26:33;99975.00;;;16.40;93.52
11672;BME280;5892;43.412;24.612;2023-04-22T08:29:01;99928.72;;;16.22;93.25
11672;BME280;5892;43.412;24.612;2023-04-22T08:31:29;99964.53;;;16.81;92.22
11672;BME280;5892;43.412;24.612;2023-04-22T08:33:56;99909.91;;;16.59;90.26
11672;BME280;5892;43.412;24.612;2023-04-22T08:36:24;99950.69;;;16.81;90.50
11672;BME280;5892;43.412;24.612;2023-04-22T08:38:52;99978.84;;;17.02;88.69
11672;BME280;5892;43.412;24.612;2023-04-22T08:41:20;99940.19;;;16.71;89.31
11672;BME280;5892;43.412;24.612;2023-04-22T08:43:48;99972.28;;;16.91;89.05
11672;BME280;5892;43.412;24.612;2023-04-22T08:46:16;99887.84;;;16.62;88.50
11672;BME280;5892;43.412;24.612;2023-04-22T08:48:47;99917.59;;;17.04;87.05
11672;BME280;5892;43.412;24.612;2023-04-22T08:51:16;99984.59;;;17.48;86.05
11672;BME280;5892;43.412;24.612;2023-04-22T08:53:43;99931.06;;;17.44;84.98
11672;BME280;5892;43.412;24.612;2023-04-22T08:56:11;99949.91;;;17.73;83.64
11672;BME280;5892;43.412;24.612;2023-04-22T08:58:40;99979.31;;;18.23;82.93
11672;BME280;5892;43.412;24.612;2023-04-22T09:01:12;99969.41;;;18.22;82.70
11672;BME280;5892;43.412;24.612;2023-04-22T09:03:40;99981.19;;;18.15;81.90
11672;BME280;5892;43.412;24.612;2023-04-22T09:06:10;99956.53;;;18.10;80.86
11672;BME280;5892;43.412;24.612;2023-04-22T09:08:37;99974.91;;;18.18;81.53
11672;BME280;5892;43.412;24.612;2023-04-22T09:11:04;99981.13;;;18.35;80.77
11672;BME280;5892;43.412;24.612;2023-04-22T09:13:31;99938.22;;;18.06;80.11
11672;BME280;5892;43.412;24.612;2023-04-22T09:15:58;99978.59;;;18.26;79.54
11672;BME280;5892;43.412;24.612;2023-04-22T09:18:25;99979.19;;;18.39;78.97
11672;BME280;5892;43.412;24.612;2023-04-22T09:20:55;99966.25;;;18.24;78.96
11672;BME280;5892;43.412;24.612;2023-04-22T09:23:23;99982.47;;;18.44;79.65
11672;BME280;5892;43.412;24.612;2023-04-22T09:25:50;99981.78;;;18.51;77.91
11672;BME280;5892;43.412;24.612;2023-04-22T09:28:18;99988.34;;;18.62;77.09
11672;BME280;5892;43.412;24.612;2023-04-22T09:30:45;99989.06;;;18.59;78.27
11672;BME280;5892;43.412;24.612;2023-04-22T09:33:13;99977.25;;;18.62;76.89
11672;BME280;5892;43.412;24.612;2023-04-22T09:35:41;99988.25;;;18.81;76.94
11672;BME280;5892;43.412;24.612;2023-04-22T09:38:10;99991.38;;;18.80;76.85
11672;BME280;5892;43.412;24.612;2023-04-22T09:40:41;99924.72;;;18.53;76.63
11672;BME280;5892;43.412;24.612;2023-04-22T09:43:09;99964.03;;;18.78;76.35
11672;BME280;5892;43.412;24.612;2023-04-22T09:45:37;99980.03;;;18.88;75.33
11672;BME280;5892;43.412;24.612;2023-04-22T09:48:07;99980.72;;;18.82;74.89
11672;BME280;5892;43.412;24.612;2023-04-22T09:50:35;99951.38;;;18.32;74.26
11672;BME280;5892;43.412;24.612;2023-04-22T09:53:03;99954.53;;;18.34;74.24
11672;BME280;5892;43.412;24.612;2023-04-22T09:55:33;99961.34;;;18.13;74.47
11672;BME280;5892;43.412;24.612;2023-04-22T09:58:06;99952.22;;;18.36;75.34
11672;BME280;5892;43.412;24.612;2023-04-22T10:00:35;99973.19;;;18.56;74.23
11672;BME280;5892;43.412;24.612;2023-04-22T10:03:04;99909.00;;;18.57;73.37
11672;BME280;5892;43.412;24.612;2023-04-22T10:05:31;99857.88;;;18.09;73.27
11672;BME280;5892;43.412;24.612;2023-04-22T10:08:02;99884.19;;;18.45;71.31
11672;BME280;5892;43.412;24.612;2023-04-22T10:10:29;99961.84;;;19.21;67.67
11672;BME280;5892;43.412;24.612;2023-04-22T10:12:57;99884.84;;;18.88;67.15
11672;BME280;5892;43.412;24.612;2023-04-22T10:15:31;99926.47;;;19.48;66.42
11672;BME280;5892;43.412;24.612;2023-04-22T10:17:59;99948.53;;;19.67;67.63
11672;BME280;5892;43.412;24.612;2023-04-22T10:20:38;99947.38;;;19.68;67.53
11672;BME280;5892;43.412;24.612;2023-04-22T10:23:11;99941.38;;;19.66;64.97
11672;BME280;5892;43.412;24.612;2023-04-22T10:25:39;99818.94;;;18.85;65.75
11672;BME280;5892;43.412;24.612;2023-04-22T10:28:07;99831.59;;;19.16;64.21
11672;BME280;5892;43.412;24.612;2023-04-22T10:30:38;99932.09;;;19.88;63.22
11672;BME280;5892;43.412;24.612;2023-04-22T10:33:39;99926.50;;;20.28;62.56
11672;BME280;5892;43.412;24.612;2023-04-22T10:36:07;99905.03;;;20.29;61.63
11672;BME280;5892;43.412;24.612;2023-04-22T10:38:35;99925.47;;;20.47;60.45
11672;BME280;5892;43.412;24.612;2023-04-22T10:41:02;99842.22;;;20.28;58.30
11672;BME280;5892;43.412;24.612;2023-04-22T10:43:42;99919.66;;;20.66;58.68
11672;BME280;5892;43.412;24.612;2023-04-22T10:49:12;99897.97;;;20.39;55.66
11672;BME280;5892;43.412;24.612;2023-04-22T10:51:40;99914.25;;;20.37;57.00
11672;BME280;5892;43.412;24.612;2023-04-22T10:57:18;99906.22;;;20.28;56.89
11672;BME280;5892;43.412;24.612;2023-04-22T10:59:48;99839.28;;;20.07;56.82
11672;BME280;5892;43.412;24.612;2023-04-22T11:02:19;99786.69;;;19.87;56.65
11672;BME280;5892;43.412;24.612;2023-04-22T11:04:48;99907.13;;;20.36;57.48
11672;BME280;5892;43.412;24.612;2023-04-22T11:07:29;99843.47;;;19.86;58.25
11672;BME280;5892;43.412;24.612;2023-04-22T11:10:32;99826.59;;;19.62;58.94
11672;BME280;5892;43.412;24.612;2023-04-22T11:13:01;99907.56;;;20.01;59.41
11672;BME280;5892;43.412;24.612;2023-04-22T11:15:28;99819.50;;;19.31;58.38
11672;BME280;5892;43.412;24.612;2023-04-22T11:17:56;99869.63;;;19.41;58.41
11672;BME280;5892;43.412;24.612;2023-04-22T11:20:24;99907.69;;;19.71;58.07
11672;BME280;5892;43.412;24.612;2023-04-22T11:22:52;99900.03;;;19.61;58.01
11672;BME280;5892;43.412;24.612;2023-04-22T11:25:20;99865.94;;;19.00;58.72
11672;BME280;5892;43.412;24.612;2023-04-22T11:27:47;99911.19;;;19.31;59.54
11672;BME280;5892;43.412;24.612;2023-04-22T11:30:16;99870.50;;;19.16;59.54
11672;BME280;5892;43.412;24.612;2023-04-22T11:32:44;99902.50;;;19.69;60.11
11672;BME280;5892;43.412;24.612;2023-04-22T11:35:13;99879.22;;;19.84;58.87
11672;BME280;5892;43.412;24.612;2023-04-22T11:37:44;99820.56;;;19.56;57.56
11672;BME280;5892;43.412;24.612;2023-04-22T11:40:12;99898.84;;;20.02;58.33
11672;BME280;5892;43.412;24.612;2023-04-22T11:42:39;99891.84;;;20.19;58.31
11672;BME280;5892;43.412;24.612;2023-04-22T11:46:38;99903.09;;;20.33;57.52
11672;BME280;5892;43.412;24.612;2023-04-22T11:49:13;99893.06;;;20.73;56.76
11672;BME280;5892;43.412;24.612;2023-04-22T11:51:51;99918.25;;;20.36;55.86
11672;BME280;5892;43.412;24.612;2023-04-22T11:54:29;99897.88;;;20.28;57.99
11672;BME280;5892;43.412;24.612;2023-04-22T11:56:56;99904.16;;;20.69;57.11
11672;BME280;5892;43.412;24.612;2023-04-22T11:59:23;99881.06;;;20.65;55.84
11672;BME280;5892;43.412;24.612;2023-04-22T12:01:52;99880.44;;;20.96;56.56
11672;BME280;5892;43.412;24.612;2023-04-22T12:04:20;99890.91;;;21.21;55.22
11672;BME280;5892;43.412;24.612;2023-04-22T12:06:48;99881.03;;;21.34;53.74
11672;BME280;5892;43.412;24.612;2023-04-22T12:09:17;99883.81;;;21.34;53.79
11672;BME280;5892;43.412;24.612;2023-04-22T12:11:44;99814.38;;;20.93;53.12
11672;BME280;5892;43.412;24.612;2023-04-22T12:14:13;99843.13;;;21.15;53.64
11672;BME280;5892;43.412;24.612;2023-04-22T12:16:41;99809.06;;;20.60;53.12
11672;BME280;5892;43.412;24.612;2023-04-22T12:19:09;99877.56;;;20.79;51.23
11672;BME280;5892;43.412;24.612;2023-04-22T12:21:40;99797.00;;;19.83;52.27
11672;BME280;5892;43.412;24.612;2023-04-22T12:24:08;99859.97;;;20.60;51.99
11672;BME280;5892;43.412;24.612;2023-04-22T12:26:36;99862.31;;;20.58;52.41
11672;BME280;5892;43.412;24.612;2023-04-22T12:29:03;99856.31;;;20.49;52.85
11672;BME280;5892;43.412;24.612;2023-04-22T12:31:30;99783.88;;;19.84;52.09
11672;BME280;5892;43.412;24.612;2023-04-22T12:33:57;99827.63;;;19.91;53.37
11672;BME280;5892;43.412;24.612;2023-04-22T12:36:25;99843.38;;;20.23;53.55
11672;BME280;5892;43.412;24.612;2023-04-22T12:38:53;99823.00;;;20.09;51.57
11672;BME280;5892;43.412;24.612;2023-04-22T12:41:20;99826.34;;;19.77;51.48
11672;BME280;5892;43.412;24.612;2023-04-22T12:43:48;99847.03;;;19.83;54.93
11672;BME280;5892;43.412;24.612;2023-04-22T12:46:16;99825.97;;;19.82;54.29
11672;BME280;5892;43.412;24.612;2023-04-22T12:48:43;99848.59;;;19.81;50.96
11672;BME280;5892;43.412;24.612;2023-04-22T12:51:10;99842.00;;;19.56;55.27
11672;BME280;5892;43.412;24.612;2023-04-22T12:53:38;99802.88;;;19.38;56.50
11672;BME280;5892;43.412;24.612;2023-04-22T12:56:05;99838.56;;;19.69;53.59
11672;BME280;5892;43.412;24.612;2023-04-22T12:58:32;99834.06;;;19.98;51.69
11672;BME280;5892;43.412;24.612;2023-04-22T13:00:59;99843.31;;;20.13;53.26
11672;BME280;5892;43.412;24.612;2023-04-22T13:03:26;99834.25;;;20.26;53.85
11672;BME280;5892;43.412;24.612;2023-04-22T13:05:53;99825.09;;;20.22;54.83